Estación Meteorológica Peña el Pijo (Robertgarden) [ 12/14/19 08:40:40 CET ]

Fecha Hora Presion(HPa) Temp (°C) Humedad % Rocio (°C) Viento ( m/s) Direccion Lluvia 1Hora(mm) Lluvia 24H(mm) LLuvia Total(mm)
2019-Sep-30 01:01:55 1012.700 11.8 64 5.2         490.25
2019-Sep-30 02:01:45 1012.700 10.8 68 5.1         490.25
2019-Sep-30 03:02:29 1012.500 10.1 70 4.9         490.25
2019-Sep-30 04:10:05 1012.300 9.8 71 4.8         490.25
2019-Sep-30 05:02:21 1011.800 9.1 73 4.5         490.25
2019-Sep-30 06:02:08 1011.800 8.9 74 4.5         490.25
2019-Sep-30 07:01:38 1011.500 9.0 75 4.8         490.25
2019-Sep-30 08:01:51 1011.800 8.6 77 4.8         490.25
2019-Sep-30 09:01:35 1011.900 8.9 77 5.0         490.25
2019-Sep-30 10:01:35 1012.000 16.1 67 10.0         490.25
2019-Sep-30 11:01:53 1011.900 21.4 51 10.8         490.25
2019-Sep-30 12:01:32 1011.600 26.1 39 11.1         490.25
2019-Sep-30 13:01:40 1011.100 30.6 30 11.1         490.25
2019-Sep-30 14:01:47 1010.600 31.9 25 9.4         490.25
2019-Sep-30 15:01:43 1010.100 32.3 24 8.9 2.0 SW     490.25
2019-Sep-30 16:01:47 1009.500 31.4 25 8.8         490.25
2019-Sep-30 17:01:41 1009.300 30.7 27 9.4         490.25
2019-Sep-30 18:01:33 1009.300 28.8 29 8.9         490.25
2019-Sep-30 19:01:40 1009.600 25.9 37 10.0         490.25
2019-Sep-30 20:01:45 1009.800 21.8 47 9.9         490.25
2019-Sep-30 21:02:05 1010.400 17.9 59 9.7         490.25
2019-Sep-30 22:01:31 1010.800 15.6 66 9.3         490.25
2019-Sep-30 23:01:53 1011.100 14.2 69 8.6         490.25

Temperatura Máxima:32°    Temperatura Mínima:
Presión Máxima:1012.700 Hpa    Presión Mínima:1009.300 Hpa


Volver